Time;durP1;ratioP1;P1;durP2;ratioP2;P2;SDS_P1;SDS_P2;PMS_P1;PMS_P2;Temp;Humidity;BMP_temperature;BMP_pressure;BME280_temperature;BME280_humidity;BME280_pressure;Samples;Min_cycle;Max_cycle;Signal;HPM_P1;HPM_P2
2022/06/08 00:02:08;;;;;;;5.50;3.10;;;15.00;99.90;;;13.97;100.00;97099.66;5092103;28;20447;-80
2022/06/08 00:04:34;;;;;;;4.07;2.33;;;15.00;99.90;;;13.95;100.00;97100.72;5092042;28;20398;-79
2022/06/08 00:07:00;;;;;;;6.70;2.42;;;14.90;99.90;;;13.92;100.00;97098.59;5091962;28;20408;-79
2022/06/08 00:09:26;;;;;;;4.22;2.45;;;14.90;99.90;;;13.91;100.00;97099.66;5091352;28;20386;-79
2022/06/08 00:11:53;;;;;;;3.60;2.50;;;14.90;99.90;;;13.90;100.00;97095.44;5091905;28;20479;-79
2022/06/08 00:14:20;;;;;;;3.00;2.30;;;14.90;99.90;;;13.89;100.00;97093.06;5091822;28;20390;-79
2022/06/08 00:16:46;;;;;;;4.82;2.88;;;14.90;99.90;;;13.86;100.00;97094.41;5091609;28;20900;-79
2022/06/08 00:19:12;;;;;;;3.77;2.80;;;14.80;99.90;;;13.85;100.00;97097.31;5091141;28;20764;-79
2022/06/08 00:21:39;;;;;;;3.42;2.50;;;14.90;99.90;;;13.82;100.00;97088.06;5073558;28;20832;-79
2022/06/08 00:24:05;;;;;;;3.17;2.85;;;14.80;99.90;;;13.83;100.00;97091.50;5091490;28;20455;-80
2022/06/08 00:26:32;;;;;;;6.25;2.72;;;14.80;99.90;;;13.83;100.00;97083.53;5091506;28;20422;-79
2022/06/08 00:28:58;;;;;;;4.18;2.50;;;14.80;99.90;;;13.84;100.00;97082.44;5091184;28;20424;-79
2022/06/08 00:31:25;;;;;;;3.55;2.92;;;14.80;99.90;;;13.84;100.00;97077.91;5091402;28;20875;-80
2022/06/08 00:33:51;;;;;;;4.03;2.60;;;14.80;99.90;;;13.84;100.00;97074.44;5091554;28;20530;-79
2022/06/08 00:36:17;;;;;;;3.03;2.70;;;14.90;99.90;;;13.83;100.00;97075.56;5091260;28;20395;-79
2022/06/08 00:38:43;;;;;;;5.60;2.60;;;14.80;99.90;;;13.82;100.00;97073.97;5090732;28;20426;-79
2022/06/08 00:41:31;;;;;;;4.05;2.70;;;14.80;99.90;;;13.80;100.00;97074.22;5091309;28;20422;-78
2022/06/08 00:43:59;;;;;;;5.65;2.88;;;14.80;99.90;;;13.78;100.00;97072.91;5089824;28;20489;-79
2022/06/08 00:46:26;;;;;;;4.03;2.90;;;14.80;99.90;;;13.76;100.00;97059.09;5091053;28;20410;-79
2022/06/08 00:48:59;;;;;;;3.65;2.70;;;14.70;99.90;;;13.72;100.00;97066.06;5090788;28;20798;-79
2022/06/08 00:51:26;;;;;;;5.30;2.85;;;14.70;99.90;;;13.71;100.00;97061.78;5091108;28;20398;-78
2022/06/08 00:53:58;;;;;;;4.68;2.70;;;14.70;99.90;;;13.67;100.00;97058.91;5072805;28;20770;-79
2022/06/08 00:56:30;;;;;;;3.35;2.75;;;14.70;99.90;;;13.67;100.00;97068.75;5089313;28;20587;-79
2022/06/08 00:58:58;;;;;;;3.00;2.67;;;14.70;99.90;;;13.64;100.00;97059.47;5084559;28;20413;-79
2022/06/08 01:01:26;;;;;;;3.42;2.53;;;14.70;99.90;;;13.64;100.00;97053.34;5072095;28;20813;-79
2022/06/08 01:04:06;;;;;;;2.73;2.50;;;14.60;99.90;;;13.62;100.00;97056.28;5090949;28;20471;-79
2022/06/08 01:06:33;;;;;;;6.32;2.88;;;14.60;99.90;;;13.62;100.00;97056.28;5088047;28;21120;-79
2022/06/08 01:08:59;;;;;;;3.25;2.78;;;14.60;99.90;;;13.61;100.00;97057.34;5090153;28;20390;-78
2022/06/08 01:11:34;;;;;;;4.57;2.85;;;14.60;99.90;;;13.57;100.00;97056.31;5090746;28;20394;-79
2022/06/08 01:14:07;;;;;;;3.97;2.97;;;14.60;99.90;;;13.54;100.00;97048.88;5090716;28;20435;-79
2022/06/08 01:16:34;;;;;;;6.68;2.90;;;14.50;99.90;;;13.50;100.00;97046.00;5087146;28;20394;-78
2022/06/08 01:19:03;;;;;;;4.03;2.83;;;14.50;99.90;;;13.52;100.00;97046.53;5089941;28;20414;-78
2022/06/08 01:21:55;;;;;;;6.35;2.90;;;14.50;99.90;;;13.51;100.00;97046.81;5088070;28;20394;-79
2022/06/08 01:24:23;;;;;;;3.63;3.22;;;14.50;99.90;;;13.49;100.00;97046.28;5089697;28;20387;-79
2022/06/08 01:27:15;;;;;;;3.72;2.92;;;14.50;99.90;;;13.48;100.00;97040.16;5087842;28;20409;-79
2022/06/08 01:29:51;;;;;;;5.23;3.20;;;14.50;99.90;;;13.46;100.00;97036.97;5088646;28;20913;-79
2022/06/08 01:32:24;;;;;;;4.90;2.88;;;14.50;99.90;;;13.46;100.00;97036.19;5088915;28;20398;-78
2022/06/08 01:35:06;;;;;;;5.68;3.03;;;14.40;99.90;;;13.43;100.00;97036.75;5087985;28;20467;-79
2022/06/08 01:37:46;;;;;;;5.90;3.10;;;14.50;99.90;;;13.41;100.00;97033.56;5088100;28;20453;-79
2022/06/08 01:40:38;;;;;;;4.03;3.23;;;14.40;99.90;;;13.39;100.00;97030.41;5087806;28;20396;-79
2022/06/08 01:43:20;;;;;;;5.77;3.27;;;14.40;99.90;;;13.36;100.00;97023.00;5089618;28;20398;-78
2022/06/08 01:46:07;;;;;;;3.75;3.05;;;14.40;99.90;;;13.33;100.00;97023.53;5090189;28;20390;-79
2022/06/08 01:48:51;;;;;;;6.80;3.40;;;14.40;99.90;;;13.31;100.00;97031.78;5103632;28;20485;-79
2022/06/08 01:51:38;;;;;;;3.80;2.90;;;14.30;99.90;;;13.28;100.00;97024.38;5088546;28;20479;-78
2022/06/08 01:54:15;;;;;;;5.65;3.22;;;14.30;99.90;;;13.27;100.00;97017.47;5089410;28;20795;-79
2022/06/08 01:56:51;;;;;;;4.15;2.97;;;14.30;99.90;;;13.28;100.00;97020.91;5090202;28;20425;-78
2022/06/08 01:59:28;;;;;;;6.38;3.03;;;14.30;99.90;;;13.28;100.00;97021.72;5088107;28;20417;-79
2022/06/08 02:02:05;;;;;;;5.80;3.08;;;14.30;99.90;;;13.25;100.00;97027.56;5070089;28;20779;-79
2022/06/08 02:04:40;;;;;;;5.25;3.25;;;14.30;99.90;;;13.23;100.00;97024.38;5087741;28;20402;-78
2022/06/08 02:07:18;;;;;;;5.20;3.00;;;14.30;99.90;;;13.21;100.00;97018.56;5090036;28;20398;-78
2022/06/08 02:09:51;;;;;;;7.43;3.50;;;14.20;99.90;;;13.20;100.00;97018.84;5089620;28;20386;-79
2022/06/08 02:12:17;;;;;;;7.07;3.37;;;14.20;99.90;;;13.17;100.00;97012.22;5090006;28;20394;-79
2022/06/08 02:14:50;;;;;;;5.03;3.17;;;14.20;99.90;;;13.16;100.00;97011.41;5089970;28;20814;-79
2022/06/08 02:17:24;;;;;;;4.38;2.92;;;14.20;99.90;;;13.15;100.00;97009.06;5070175;28;20484;-79
2022/06/08 02:19:57;;;;;;;3.95;3.03;;;14.20;99.90;;;13.12;100.00;97009.56;5090586;28;20501;-79
2022/06/08 02:22:30;;;;;;;5.18;3.25;;;14.10;99.90;;;13.08;100.00;97004.00;5094061;28;20393;-78
2022/06/08 02:25:06;;;;;;;3.03;2.65;;;14.10;99.90;;;13.06;100.00;96997.38;5092234;28;20406;-78
2022/06/08 02:27:41;;;;;;;4.68;3.00;;;14.10;99.90;;;13.01;100.00;97008.81;5091792;28;20397;-78
2022/06/08 02:30:12;;;;;;;6.10;3.00;;;14.10;99.90;;;12.97;100.00;96999.84;5093427;28;20394;-78
2022/06/08 02:35:30;;;;;;;4.60;3.33;;;14.00;99.90;;;12.89;100.00;96996.97;5093242;28;20473;-78
2022/06/08 02:38:05;;;;;;;5.25;3.65;;;13.90;99.90;;;12.87;100.00;96997.22;5093629;28;20386;-78
2022/06/08 02:40:40;;;;;;;4.32;3.00;;;13.90;99.90;;;12.84;100.00;96991.69;5091253;28;20402;-78
2022/06/08 02:43:11;;;;;;;4.47;3.20;;;13.90;99.90;;;12.83;100.00;96988.22;5093722;28;20480;-79
2022/06/08 02:45:42;;;;;;;5.78;3.17;;;13.80;99.90;;;12.82;100.00;96988.50;5093744;28;20425;-78
2022/06/08 02:48:11;;;;;;;5.25;3.25;;;13.80;99.90;;;12.82;100.00;96983.97;5092464;28;20538;-78
2022/06/08 02:50:48;;;;;;;5.93;3.15;;;13.80;99.90;;;12.80;100.00;96983.44;5090805;28;20390;-78
2022/06/08 02:53:53;;;;;;;4.97;3.30;;;13.80;99.90;;;12.78;100.00;96983.72;5091513;28;20408;-79
2022/06/08 02:56:33;;;;;;;6.28;2.88;;;13.80;99.90;;;12.78;100.00;96982.94;5091191;28;20485;-78
2022/06/08 02:59:05;;;;;;;5.60;3.10;;;13.80;99.90;;;12.82;100.00;96970.69;5091358;28;20421;-78
2022/06/08 03:01:37;;;;;;;5.07;3.20;;;13.80;99.90;;;12.86;100.00;96978.91;5085928;28;20397;-79
2022/06/08 03:04:10;;;;;;;6.88;3.10;;;13.80;99.90;;;12.91;100.00;96979.69;5090885;28;20771;-80
2022/06/08 03:06:43;;;;;;;5.60;3.20;;;13.90;99.90;;;12.95;100.00;96980.72;5091425;28;20497;-79
2022/06/08 03:09:13;;;;;;;6.68;2.90;;;13.90;99.90;;;12.97;100.00;96970.59;5087746;28;20402;-79
2022/06/08 03:11:46;;;;;;;5.50;3.28;;;14.00;99.90;;;12.98;100.00;96963.44;5093163;28;20386;-79
2022/06/08 03:14:16;;;;;;;5.38;3.25;;;14.00;99.90;;;13.03;100.00;96966.84;5090907;28;20446;-78
2022/06/08 03:16:53;;;;;;;6.57;3.40;;;14.00;99.90;;;13.06;100.00;96966.28;5093081;28;20398;-78
2022/06/08 03:19:19;;;;;;;7.63;3.38;;;14.00;99.90;;;13.07;100.00;96972.41;5091169;28;20413;-79
2022/06/08 03:21:46;;;;;;;5.97;3.25;;;14.00;99.90;;;13.06;100.00;96963.63;5106288;28;20398;-79
2022/06/08 03:24:12;;;;;;;8.68;3.15;;;14.10;99.90;;;13.07;100.00;96959.13;5088322;28;20459;-78
2022/06/08 03:26:44;;;;;;;6.05;3.10;;;14.10;99.90;;;13.07;100.00;96959.91;5092884;28;20410;-79
2022/06/08 03:29:10;;;;;;;6.93;3.05;;;14.10;99.90;;;13.07;99.86;96961.78;5089707;28;20390;-77
2022/06/08 03:31:36;;;;;;;6.47;2.90;;;14.00;99.90;;;13.05;100.00;96954.06;5092314;28;20410;-77
2022/06/08 03:34:03;;;;;;;8.43;2.85;;;14.00;99.90;;;13.06;100.00;96957.53;5093405;28;20493;-77
2022/06/08 03:36:28;;;;;;;8.05;2.92;;;14.00;99.90;;;13.06;100.00;96955.66;5093058;28;20404;-77
2022/06/08 03:38:54;;;;;;;9.77;3.35;;;14.00;99.90;;;13.07;100.00;96959.13;5092584;28;20413;-77
2022/06/08 03:41:20;;;;;;;5.18;2.63;;;14.10;99.90;;;13.03;100.00;96952.75;5075274;28;20406;-77
2022/06/08 03:43:48;;;;;;;6.13;3.00;;;14.00;99.90;;;13.05;100.00;96950.63;5093117;28;20394;-77
2022/06/08 03:46:15;;;;;;;6.22;3.20;;;14.00;99.90;;;13.05;99.94;96950.63;5093293;28;20395;-76
2022/06/08 03:48:44;;;;;;;4.97;2.80;;;14.00;99.90;;;13.05;99.91;96947.97;5092476;28;20390;-77
2022/06/08 03:51:12;;;;;;;7.10;2.80;;;14.00;99.90;;;13.09;99.68;96949.78;5093038;28;20398;-77
2022/06/08 03:53:48;;;;;;;6.38;2.50;;;14.00;99.90;;;13.13;99.68;96939.44;5092881;28;20452;-77
2022/06/08 03:56:16;;;;;;;9.80;2.80;;;14.10;99.90;;;13.17;99.92;96951.09;5093146;28;20455;-76
2022/06/08 03:58:43;;;;;;;6.50;2.70;;;14.10;99.90;;;13.18;99.05;96950.00;5092131;28;20511;-76
2022/06/08 04:01:12;;;;;;;7.93;3.25;;;14.20;99.90;;;13.26;100.00;96954.75;5092555;28;20390;-77
2022/06/08 04:03:38;;;;;;;8.07;2.78;;;14.20;99.90;;;13.28;100.00;96957.91;5092460;28;20760;-76
2022/06/08 04:06:04;;;;;;;7.53;2.70;;;14.20;99.90;;;13.31;100.00;96951.22;5092367;28;20413;-76
2022/06/08 04:08:31;;;;;;;6.15;3.08;;;14.30;99.90;;;13.38;100.00;96949.06;5092229;28;20398;-76
2022/06/08 04:10:58;;;;;;;4.30;2.60;;;14.30;99.90;;;13.42;100.00;96955.41;5092412;28;20410;-77
2022/06/08 04:13:24;;;;;;;7.97;2.87;;;14.40;99.90;;;13.45;100.00;96958.31;5092364;28;20877;-76
2022/06/08 04:15:51;;;;;;;5.85;2.83;;;14.40;99.90;;;13.52;100.00;96950.81;5091995;28;20473;-77
2022/06/08 04:18:21;;;;;;;8.63;2.60;;;14.50;99.90;;;13.50;99.65;96954.81;5092143;28;20442;-78
2022/06/08 04:20:52;;;;;;;6.82;2.60;;;14.40;99.90;;;13.50;99.21;96952.16;5092476;28;20398;-77
2022/06/08 04:23:21;;;;;;;7.07;2.60;;;14.40;99.90;;;13.52;99.09;96953.47;5092515;28;20448;-77
2022/06/08 04:25:49;;;;;;;4.70;2.55;;;14.50;99.90;;;13.54;98.77;96945.97;5092824;28;20394;-77
2022/06/08 04:28:17;;;;;;;6.15;2.60;;;14.50;99.90;;;13.53;98.54;96952.38;5092874;28;20394;-76
2022/06/08 04:30:43;;;;;;;7.47;2.40;;;14.50;99.90;;;13.52;98.03;96955.31;5092398;28;20484;-76
2022/06/08 04:33:10;;;;;;;5.95;2.35;;;14.40;99.90;;;13.48;96.00;96957.75;5092305;28;20402;-76
2022/06/08 04:35:38;;;;;;;5.90;2.80;;;14.40;99.90;;;13.53;97.93;96951.59;5093239;28;20398;-76
2022/06/08 04:38:06;;;;;;;11.18;2.67;;;14.50;99.90;;;13.48;97.66;96941.00;5092785;28;20903;-76
2022/06/08 04:40:32;;;;;;;7.15;2.75;;;14.40;99.90;;;13.47;96.60;96942.06;5092021;28;20394;-76
2022/06/08 04:42:59;;;;;;;4.88;2.40;;;14.40;99.90;;;13.44;97.56;96938.13;5092332;28;20398;-77
2022/06/08 04:45:27;;;;;;;6.95;2.72;;;14.40;99.90;;;13.39;96.92;96929.38;5092487;28;20423;-77
2022/06/08 04:47:53;;;;;;;6.05;2.50;;;14.30;99.90;;;13.37;95.99;96928.88;5091964;28;20402;-75
2022/06/08 04:50:20;;;;;;;5.80;2.50;;;14.30;99.90;;;13.34;95.91;96924.09;5091772;28;20513;-76
2022/06/08 04:52:48;;;;;;;4.68;2.50;;;14.30;99.90;;;13.33;97.75;96938.47;5092141;28;20493;-78
2022/06/08 04:55:16;;;;;;;6.13;2.73;;;14.30;99.90;;;13.33;98.32;96935.81;5091676;28;20402;-75
2022/06/08 04:57:42;;;;;;;6.30;2.70;;;14.20;99.90;;;13.28;97.42;96939.31;5091405;28;20494;-76
2022/06/08 05:00:13;;;;;;;7.88;2.70;;;14.30;99.90;;;13.28;96.70;96930.53;5091026;28;20417;-75
2022/06/08 05:02:43;;;;;;;6.53;3.20;;;14.20;99.90;;;13.29;98.70;96948.09;5091549;28;20954;-76
2022/06/08 05:05:10;;;;;;;7.13;3.07;;;14.20;99.90;;;13.32;99.69;96944.84;5091329;28;20452;-76
2022/06/08 05:07:36;;;;;;;5.38;3.00;;;14.30;99.90;;;13.38;100.00;96943.75;5091353;28;20460;-75
2022/06/08 05:10:06;;;;;;;6.97;2.78;;;14.30;99.90;;;13.48;100.00;96943.66;5090896;28;20394;-76
2022/06/08 05:12:32;;;;;;;9.40;2.90;;;14.40;99.90;;;13.54;100.00;96953.16;5091280;28;20501;-75
2022/06/08 05:14:58;;;;;;;4.65;2.60;;;14.50;99.90;;;13.68;100.00;96956.75;5091094;28;20394;-76
2022/06/08 05:17:24;;;;;;;4.55;2.40;;;14.60;99.90;;;13.76;100.00;96952.69;5079772;28;20956;-76
2022/06/08 05:19:50;;;;;;;5.63;3.03;;;14.70;99.90;;;13.91;100.00;96952.53;5077327;28;20421;-76
2022/06/08 05:22:17;;;;;;;5.43;2.55;;;14.80;99.90;;;14.07;100.00;96958.47;5097926;22;20430;-89
2022/06/08 05:24:43;;;;;;;6.43;2.60;;;14.90;99.90;;;14.18;100.00;96957.28;5081764;28;20406;-90
2022/06/08 05:27:11;;;;;;;6.05;2.38;;;15.10;99.90;;;14.33;100.00;96957.91;5067806;28;20461;-90
2022/06/08 05:29:38;;;;;;;7.75;2.92;;;15.20;99.90;;;14.44;100.00;96961.25;5060567;28;20404;-90
2022/06/08 05:32:06;;;;;;;9.02;2.65;;;15.30;99.90;;;14.37;100.00;96950.13;5063082;28;20775;-90
2022/06/08 05:34:33;;;;;;;5.45;2.70;;;15.30;99.90;;;14.52;100.00;96949.97;5059441;28;20413;-91
2022/06/08 05:36:59;;;;;;;6.80;2.60;;;15.50;99.90;;;14.62;100.00;96946.38;5061220;28;20496;-91
2022/06/08 05:39:28;;;;;;;6.10;2.50;;;15.50;99.90;;;14.66;100.00;96950.03;5052675;28;20413;-93
2022/06/08 05:41:56;;;;;;;5.55;2.47;;;15.50;99.90;;;14.71;100.00;96948.13;5069726;28;20483;-91
2022/06/08 05:44:24;;;;;;;8.43;2.40;;;15.70;99.90;;;14.76;100.00;96938.47;5074817;28;20498;-91
2022/06/08 05:46:51;;;;;;;4.20;2.20;;;15.60;99.90;;;14.77;100.00;96940.06;5073106;28;20450;-91
2022/06/08 05:49:18;;;;;;;7.00;2.83;;;15.70;99.90;;;14.87;100.00;96940.72;5053191;28;20977;-91
2022/06/08 05:51:45;;;;;;;6.97;2.28;;;15.70;99.90;;;14.93;99.42;96936.88;5071012;28;20404;-91
2022/06/08 05:54:12;;;;;;;7.65;2.40;;;15.80;99.90;;;15.06;100.00;96946.00;5070416;28;20920;-91
2022/06/08 05:56:41;;;;;;;7.45;2.40;;;15.90;99.90;;;15.19;100.00;96950.59;5068906;28;20410;-90
2022/06/08 05:59:13;;;;;;;9.30;2.70;;;16.00;99.90;;;15.19;100.00;96944.47;5068527;28;20409;-91
2022/06/08 06:02:17;;;;;;;9.52;2.42;;;16.10;99.90;;;15.20;99.42;96938.06;5077683;28;20395;-92
2022/06/08 06:04:44;;;;;;;4.90;2.47;;;16.10;99.90;;;15.37;100.00;96938.31;5072750;28;20978;-90
2022/06/08 06:07:13;;;;;;;6.95;2.47;;;16.20;99.90;;;15.44;100.00;96928.84;5063138;28;20399;-90
2022/06/08 06:09:41;;;;;;;6.88;2.50;;;16.30;99.90;;;15.49;100.00;96934.09;5080091;28;20387;-90
2022/06/08 06:12:09;;;;;;;12.00;2.17;;;16.30;99.90;;;15.56;100.00;96932.97;5079204;28;20987;-91
2022/06/08 06:14:36;;;;;;;9.30;2.38;;;16.40;99.90;;;15.47;97.85;96935.50;5084130;28;20412;-91
2022/06/08 06:17:05;;;;;;;8.57;2.40;;;16.30;99.90;;;15.53;97.75;96929.00;5081564;28;20415;-92
2022/06/08 06:19:32;;;;;;;8.65;2.75;;;16.40;99.90;;;15.74;100.00;96932.88;5072527;28;20445;-92
2022/06/08 06:21:58;;;;;;;4.68;1.75;;;16.50;99.90;;;15.69;100.00;96924.19;5066073;28;20435;-90
2022/06/08 06:24:27;;;;;;;9.15;2.70;;;16.50;99.90;;;15.65;92.66;96928.53;5055290;28;20407;-90
2022/06/08 06:26:53;;;;;;;10.35;2.17;;;16.40;99.90;;;15.69;90.67;96918.84;5061041;28;20468;-91
2022/06/08 06:29:21;;;;;;;8.63;2.20;;;16.50;99.90;;;15.84;96.03;96919.38;5067590;28;20397;-90
2022/06/08 06:31:52;;;;;;;6.35;1.70;;;16.60;99.90;;;15.91;97.55;96923.50;5062245;28;20429;-90
2022/06/08 06:34:22;;;;;;;6.15;1.83;;;16.80;99.90;;;15.92;94.62;96914.44;5070723;28;20414;-88
2022/06/08 06:36:53;;;;;;;8.43;2.23;;;16.80;99.90;;;16.07;97.00;96914.94;5049032;28;20417;-88
2022/06/08 06:39:20;;;;;;;4.68;1.90;;;16.90;99.90;;;16.18;96.64;96912.81;5067061;28;20419;-88
2022/06/08 06:41:46;;;;;;;8.07;2.40;;;17.00;99.90;;;16.10;91.58;96902.84;5061024;28;20394;-88
2022/06/08 06:44:13;;;;;;;6.78;2.00;;;16.90;99.90;;;16.24;95.03;96911.63;5067842;28;20404;-89
2022/06/08 06:46:40;;;;;;;9.30;2.80;;;17.10;99.90;;;16.24;94.39;96908.94;5057378;28;20409;-89
2022/06/08 06:49:07;;;;;;;6.65;2.10;;;17.10;99.90;;;16.35;96.26;96909.53;5068403;28;20403;-89
2022/06/08 06:51:36;;;;;;;5.80;2.13;;;17.10;99.90;;;16.38;94.10;96915.09;5065896;28;20408;-90
2022/06/08 06:54:02;;;;;;;7.97;2.25;;;17.20;99.90;;;16.43;94.89;96914.97;5069681;28;20414;-90
2022/06/08 06:56:29;;;;;;;5.85;1.92;;;17.30;99.90;;;16.48;93.66;96914.84;5070893;28;20780;-90
2022/06/08 06:58:55;;;;;;;5.88;2.20;;;17.30;99.90;;;16.62;96.35;96914.84;5065570;28;20442;-87
2022/06/08 07:01:21;;;;;;;8.32;2.28;;;17.40;99.90;;;16.73;95.45;96912.75;5069869;28;20404;-90
2022/06/08 07:03:49;;;;;;;8.30;2.15;;;17.50;99.90;;;16.84;97.16;96914.13;5058102;28;20419;-89
2022/06/08 07:06:16;;;;;;;6.88;1.90;;;17.60;99.90;;;16.83;95.01;96912.53;5057866;28;20396;-89
2022/06/08 07:08:44;;;;;;;7.22;2.30;;;17.60;99.90;;;16.93;95.95;96910.41;5077615;28;20408;-87
2022/06/08 07:14:02;;;;;;;5.20;2.13;;;17.70;99.90;;;17.09;97.56;96902.03;5079144;28;20392;-88
2022/06/08 07:16:31;;;;;;;11.90;2.20;;;17.90;99.90;;;16.94;90.81;96895.94;5069560;28;20443;-89
2022/06/08 07:18:59;;;;;;;5.38;2.10;;;17.70;99.90;;;16.95;93.67;96894.84;5072280;28;20523;-89
2022/06/08 07:21:28;;;;;;;4.10;1.77;;;17.80;99.90;;;16.90;93.91;96891.53;5056697;28;20404;-88
2022/06/08 07:23:56;;;;;;;5.57;1.90;;;17.70;99.90;;;16.80;92.28;96887.19;5073941;28;20403;-88
2022/06/08 07:26:28;;;;;;;6.68;2.05;;;17.60;99.90;;;16.63;86.83;96884.38;5074833;28;20473;-94
2022/06/08 07:28:54;;;;;;;5.45;1.90;;;17.40;99.90;;;16.53;89.61;96884.59;5072918;28;20395;-91
2022/06/08 07:31:22;;;;;;;7.85;2.20;;;17.40;99.90;;;16.46;88.27;96882.34;5074991;28;20422;-91
2022/06/08 07:33:49;;;;;;;5.97;2.05;;;17.30;99.90;;;16.40;87.36;96888.84;5053381;28;20777;-90
2022/06/08 07:36:16;;;;;;;8.85;2.72;;;17.20;99.90;;;16.28;84.72;96875.22;5073127;28;20902;-90
2022/06/08 07:38:44;;;;;;;6.95;1.98;;;17.10;99.90;;;16.31;88.83;96874.66;5056471;28;20502;-90
2022/06/08 07:41:21;;;;;;;5.82;2.00;;;17.20;99.90;;;16.32;91.32;96857.50;5073864;28;20917;-90
2022/06/08 07:43:47;;;;;;;8.68;2.17;;;17.20;99.90;;;16.29;88.48;96862.66;5074130;28;20483;-90
2022/06/08 07:46:14;;;;;;;8.55;2.10;;;17.10;99.90;;;16.22;87.21;96860.41;5065004;28;20403;-91
2022/06/08 07:51:26;;;;;;;8.47;2.17;;;17.10;99.90;;;16.13;77.92;96854.97;5074960;28;20403;-90
2022/06/08 07:53:52;;;;;;;7.05;2.10;;;17.00;99.90;;;16.12;80.01;96850.72;5072166;28;20392;-90
2022/06/08 07:56:21;;;;;;;3.33;1.60;;;17.00;99.90;;;16.19;81.39;96848.44;5073345;28;20424;-89
2022/06/08 07:58:49;;;;;;;6.70;1.77;;;17.10;99.90;;;16.16;77.28;96851.69;5073213;28;20412;-94
2022/06/08 08:01:16;;;;;;;5.70;1.52;;;17.10;99.90;;;16.20;79.84;96842.00;5073857;28;20403;-90
2022/06/08 08:03:44;;;;;;;7.13;1.90;;;17.10;99.90;;;16.26;79.70;96842.69;5073423;28;20460;-89
2022/06/08 08:06:11;;;;;;;4.35;1.55;;;17.10;99.90;;;16.31;80.27;96831.91;5073205;28;20461;-89
2022/06/08 08:08:39;;;;;;;3.78;1.63;;;17.20;99.90;;;16.39;80.93;96833.06;5072848;28;20412;-91
2022/06/08 08:11:06;;;;;;;6.00;1.80;;;17.20;99.90;;;16.41;79.68;96823.66;5072118;28;20425;-90
2022/06/08 08:13:36;;;;;;;8.77;1.95;;;17.30;99.90;;;16.44;77.39;96823.06;5085057;28;20419;-88
2022/06/08 08:16:04;;;;;;;6.93;2.00;;;17.30;99.90;;;16.50;75.95;96827.19;5074036;28;20405;-91
2022/06/08 08:18:31;;;;;;;6.38;1.80;;;17.40;99.90;;;16.58;76.46;96821.13;5041634;28;20388;-88
2022/06/08 08:20:57;;;;;;;15.10;1.90;;;17.40;99.90;;;16.67;74.57;96828.44;5065838;28;20410;-89
2022/06/08 08:23:24;;;;;;;8.30;1.70;;;17.50;99.90;;;16.80;73.02;96830.28;5063452;28;20443;-88
2022/06/08 08:25:52;;;;;;;4.57;1.42;;;17.60;99.90;;;16.89;71.55;96820.44;5066186;28;20415;-87
2022/06/08 08:28:18;;;;;;;5.32;1.60;;;17.70;99.90;;;16.93;71.56;96821.38;5061733;28;20500;-91
2022/06/08 08:30:46;;;;;;;8.13;1.70;;;17.80;99.90;;;17.00;70.16;96817.19;5059377;28;20908;-89
2022/06/08 08:33:14;;;;;;;4.20;1.40;;;17.80;99.90;;;17.07;70.98;96815.97;5067184;28;20916;-89
2022/06/08 08:35:42;;;;;;;5.53;1.42;;;17.90;99.90;;;17.12;69.17;96819.31;5066825;28;20414;-89
2022/06/08 08:38:19;;;;;;;5.70;1.40;;;17.90;99.90;;;17.19;68.04;96808.19;5077816;28;20455;-92
2022/06/08 08:41:01;;;;;;;6.13;1.55;;;18.00;99.40;;;17.25;68.07;96809.63;5072226;28;20382;-88
2022/06/08 08:43:31;;;;;;;5.72;1.80;;;18.00;99.50;;;17.36;67.90;96810.94;5076070;28;20473;-89
2022/06/08 08:46:34;;;;;;;3.40;1.35;;;18.20;99.10;;;17.51;67.59;96810.53;5072090;28;20972;-90
2022/06/08 08:49:09;;;;;;;8.30;2.00;;;18.30;98.20;;;17.60;65.20;96808.66;5086545;28;20414;-92
2022/06/08 08:51:44;;;;;;;6.83;1.70;;;18.40;94.80;;;17.66;64.04;96801.31;5081809;28;20513;-92
2022/06/08 08:54:23;;;;;;;6.13;1.30;;;18.50;93.90;;;17.80;64.26;96799.31;5086881;28;20671;-90
2022/06/08 08:56:52;;;;;;;7.30;1.53;;;18.60;94.10;;;17.91;64.95;96794.44;5075502;28;20480;-89
2022/06/08 08:59:22;;;;;;;4.43;1.35;;;18.70;94.50;;;18.01;63.63;96792.25;5083096;28;20407;-89
2022/06/08 09:01:58;;;;;;;4.88;1.45;;;18.80;93.30;;;18.19;64.38;96780.44;5079941;28;20482;-89
2022/06/08 09:05:21;;;;;;;4.45;1.40;;;18.90;94.50;;;18.34;63.48;96779.22;5075247;28;20415;-88
2022/06/08 09:07:48;;;;;;;7.10;2.10;;;19.10;93.00;;;18.27;59.87;96775.44;5080638;28;20409;-89
2022/06/08 09:10:22;;;;;;;5.00;1.48;;;19.10;88.30;;;18.24;59.59;96779.53;5082849;28;20428;-89
2022/06/08 09:12:49;;;;;;;5.15;1.45;;;19.00;87.60;;;18.24;61.41;96776.06;5070090;28;20417;-89
2022/06/08 09:15:37;;;;;;;5.70;1.30;;;19.00;90.40;;;18.27;61.64;96778.13;5065308;28;21103;-90
2022/06/08 09:18:06;;;;;;;4.75;1.20;;;19.00;90.60;;;18.33;62.57;96766.13;5066619;28;20412;-88
2022/06/08 09:20:36;;;;;;;9.55;1.60;;;19.10;91.60;;;18.39;61.51;96768.34;5065500;28;20412;-91
2022/06/08 09:23:21;;;;;;;3.30;1.20;;;19.20;90.40;;;18.43;58.91;96761.22;5073305;28;20422;-90
2022/06/08 09:26:03;;;;;;;3.88;1.33;;;19.20;86.70;;;18.57;61.60;96752.28;5064526;28;20467;-90
2022/06/08 09:28:32;;;;;;;5.78;1.60;;;19.30;90.30;;;18.63;59.07;96761.72;5060772;28;20504;-93
2022/06/08 09:30:59;;;;;;;4.60;1.20;;;19.40;86.60;;;18.78;60.91;96753.19;5061194;28;20407;-89
2022/06/08 09:33:35;;;;;;;4.38;1.30;;;19.50;89.70;;;18.80;57.86;96746.38;5061652;28;20416;-90
2022/06/08 09:36:06;;;;;;;4.70;1.60;;;19.50;83.80;;;18.79;55.37;96736.78;5068441;28;20837;-91
2022/06/08 09:38:37;;;;;;;8.25;1.58;;;19.50;79.10;;;18.85;56.44;96732.81;5062290;28;20500;-91
2022/06/08 09:41:16;;;;;;;7.43;1.58;;;19.60;81.20;;;18.89;56.44;96732.94;5063116;28;20502;-92
2022/06/08 09:44:05;;;;;;;4.82;1.20;;;19.60;81.20;;;19.02;56.65;96729.28;5065225;28;20402;-93
2022/06/08 09:52:56;;;;;;;4.53;1.07;;;20.30;78.80;;;20.03;53.07;96709.47;5069629;28;20487;-91
2022/06/08 09:55:40;;;;;;;5.60;1.40;;;20.60;76.20;;;20.31;52.62;96709.72;5073736;28;20446;-90
2022/06/08 09:58:31;;;;;;;5.80;1.17;;;21.00;75.20;;;20.61;51.18;96726.53;5068822;28;20417;-92
2022/06/08 10:01:06;;;;;;;4.32;1.00;;;21.20;74.70;;;20.85;51.99;96704.31;5062277;28;20897;-90
2022/06/08 10:04:14;;;;;;;5.07;1.00;;;21.40;74.00;;;20.86;48.18;96703.19;5058440;28;20401;-96
2022/06/08 10:06:58;;;;;;;4.07;0.90;;;21.60;68.00;;;21.00;49.40;96697.50;5057819;28;20401;-92
2022/06/08 10:09:33;;;;;;;4.25;1.10;;;21.60;69.60;;;21.03;50.27;96700.31;5069669;28;20634;-92
2022/06/08 10:12:14;;;;;;;3.05;0.90;;;21.70;70.80;;;21.06;51.07;96704.22;5102237;22;20412;-78
2022/06/08 10:14:47;;;;;;;3.53;1.20;;;21.60;71.80;;;21.15;51.26;96697.63;5098516;28;20450;-78
2022/06/08 10:17:20;;;;;;;3.08;0.80;;;21.70;72.10;;;21.20;51.02;96694.72;5105671;28;20492;-74
2022/06/08 10:20:06;;;;;;;4.10;0.80;;;21.80;71.40;;;21.28;49.67;96690.34;5107438;28;20909;-79
2022/06/08 10:22:40;;;;;;;4.55;1.27;;;21.90;70.20;;;21.10;47.17;96686.31;5094753;28;20397;-76
2022/06/08 10:25:16;;;;;;;4.63;1.40;;;21.70;66.20;;;21.02;47.67;96681.81;5094656;28;20756;-76
2022/06/08 10:27:52;;;;;;;3.42;1.10;;;21.60;66.90;;;21.02;48.55;96682.59;5102003;28;20443;-76
2022/06/08 10:30:26;;;;;;;3.00;1.05;;;21.60;68.20;;;21.04;47.58;96685.75;5094305;28;20789;-77
2022/06/08 10:33:00;;;;;;;3.80;1.23;;;21.60;66.10;;;21.21;45.06;96682.06;5101054;28;20404;-76
2022/06/08 10:35:35;;;;;;;4.78;1.40;;;21.80;63.40;;;21.96;45.47;96680.53;5103520;28;20412;-75
2022/06/08 10:38:05;;;;;;;2.65;1.02;;;22.60;64.80;;;23.05;43.25;96678.44;5093362;28;20759;-74
2022/06/08 10:40:49;;;;;;;1.85;0.85;;;23.70;62.30;;;24.76;40.06;96664.72;5094219;28;20817;-74
2022/06/08 10:43:20;;;;;;;1.73;0.80;;;25.30;56.70;;;26.15;37.48;96664.91;5099054;28;20432;-76
2022/06/08 10:45:54;;;;;;;2.03;0.75;;;26.70;54.10;;;27.63;35.19;96659.34;5114341;28;20384;-73
2022/06/08 10:48:33;;;;;;;2.95;0.80;;;28.10;52.50;;;29.12;35.96;96657.91;5105798;28;20903;-75